createdAt,value
2023-11-23T00:00:22.355Z,75.41
2023-11-23T00:02:51.339Z,75.29
2023-11-23T00:05:21.655Z,75.38
2023-11-23T00:07:50.598Z,75.50
2023-11-23T00:10:19.326Z,76.10
2023-11-23T00:12:48.188Z,76.35
2023-11-23T00:15:17.638Z,76.44
2023-11-23T00:17:48.460Z,75.91
2023-11-23T00:20:17.465Z,76.96
2023-11-23T00:22:46.258Z,75.96
2023-11-23T00:25:15.490Z,76.81
2023-11-23T00:27:44.311Z,76.38
2023-11-23T00:30:14.665Z,77.02
2023-11-23T00:32:44.448Z,76.54
2023-11-23T00:35:15.106Z,77.04
2023-11-23T00:37:46.437Z,77.01
2023-11-23T00:40:15.350Z,76.65
2023-11-23T00:42:44.113Z,77.38
2023-11-23T00:45:16.288Z,77.10
2023-11-23T00:47:45.394Z,76.83
2023-11-23T00:50:15.734Z,77.25
2023-11-23T00:52:45.058Z,77.45
2023-11-23T00:55:14.240Z,77.32
2023-11-23T00:57:42.976Z,77.51
2023-11-23T01:00:13.618Z,77.35
2023-11-23T01:02:43.500Z,77.35
2023-11-23T01:05:13.586Z,77.19
2023-11-23T01:07:46.045Z,77.16
2023-11-23T01:10:15.007Z,77.98
2023-11-23T01:13:37.980Z,77.58
2023-11-23T01:16:09.574Z,77.30
2023-11-23T01:18:54.225Z,78.11
2023-11-23T01:22:17.168Z,77.78
2023-11-23T01:24:47.475Z,78.15
2023-11-23T01:27:16.372Z,77.67
2023-11-23T01:30:22.141Z,78.46
2023-11-23T01:35:35.269Z,77.88
2023-11-23T01:38:04.256Z,78.07
2023-11-23T01:43:48.146Z,79.07
2023-11-23T01:46:39.385Z,79.59
2023-11-23T01:49:09.532Z,78.64
2023-11-23T01:51:38.707Z,79.74
2023-11-23T01:54:08.540Z,79.38
2023-11-23T01:56:38.922Z,79.59
2023-11-23T01:59:07.866Z,79.19
2023-11-23T02:01:37.181Z,79.90
2023-11-23T02:04:06.483Z,80.03
2023-11-23T02:09:15.999Z,79.71
2023-11-23T02:11:46.325Z,79.48
2023-11-23T02:14:16.048Z,79.21
2023-11-23T02:16:46.019Z,79.38
2023-11-23T02:19:14.831Z,79.51
2023-11-23T02:21:44.974Z,80.67
2023-11-23T02:24:15.726Z,80.76
2023-11-23T02:26:44.558Z,80.37
2023-11-23T02:29:13.339Z,79.93
2023-11-23T02:31:42.108Z,80.77
2023-11-23T02:34:11.003Z,80.49
2023-11-23T02:36:39.915Z,79.89
2023-11-23T02:39:10.764Z,79.94
2023-11-23T02:41:41.093Z,79.22
2023-11-23T02:44:10.367Z,79.48
2023-11-23T02:46:39.368Z,79.66
2023-11-23T02:49:08.207Z,79.63
2023-11-23T02:51:36.968Z,79.32
2023-11-23T02:54:07.811Z,80.08
2023-11-23T02:56:37.812Z,79.83
2023-11-23T02:59:09.318Z,79.34
2023-11-23T03:01:38.501Z,79.52
2023-11-23T03:04:07.509Z,79.46
2023-11-23T03:06:36.484Z,79.34
2023-11-23T03:09:07.066Z,79.26
2023-11-23T03:11:36.073Z,79.15
2023-11-23T03:14:05.416Z,79.20
2023-11-23T03:16:35.723Z,78.85
2023-11-23T03:19:04.809Z,78.76
2023-11-23T03:21:33.766Z,78.59
2023-11-23T03:24:02.600Z,78.42
2023-11-23T03:26:31.485Z,78.76
2023-11-23T03:29:00.202Z,78.58
2023-11-23T03:31:29.077Z,78.42
2023-11-23T03:33:59.255Z,77.84
2023-11-23T03:36:28.191Z,77.51
2023-11-23T03:39:00.209Z,77.50
2023-11-23T03:41:29.068Z,77.62
2023-11-23T03:43:59.044Z,77.55
2023-11-23T03:46:28.503Z,77.64
2023-11-23T03:48:58.693Z,77.29
2023-11-23T03:51:27.713Z,77.52
2023-11-23T03:53:56.576Z,77.07
2023-11-23T03:56:25.809Z,76.79
2023-11-23T03:58:54.535Z,77.25
2023-11-23T04:01:24.796Z,76.50
2023-11-23T04:03:53.818Z,76.45
2023-11-23T04:06:24.506Z,76.41
2023-11-23T04:08:54.140Z,76.40
2023-11-23T04:11:24.946Z,76.88
2023-11-23T04:13:53.876Z,76.86
2023-11-23T04:16:22.623Z,76.72
2023-11-23T04:18:50.415Z,76.27
2023-11-23T04:21:19.718Z,76.73
2023-11-23T04:23:50.150Z,77.21
2023-11-23T04:26:19.014Z,77.43
2023-11-23T04:28:49.664Z,76.46
2023-11-23T04:31:19.152Z,77.56
2023-11-23T04:33:47.793Z,76.92
2023-11-23T04:36:16.742Z,77.51
2023-11-23T04:38:45.715Z,76.99
2023-11-23T04:41:16.155Z,77.67
2023-11-23T04:43:45.088Z,78.08
2023-11-23T04:46:14.196Z,78.06
2023-11-23T04:48:43.132Z,77.51
2023-11-23T04:51:12.036Z,77.97
2023-11-23T04:53:40.832Z,78.05
2023-11-23T04:56:10.242Z,77.80
2023-11-23T04:58:40.964Z,78.96
2023-11-23T05:01:10.557Z,79.21
2023-11-23T05:03:39.382Z,79.04
2023-11-23T05:06:09.680Z,78.99
2023-11-23T05:08:41.065Z,79.41
2023-11-23T05:11:10.189Z,79.43
2023-11-23T05:13:40.587Z,79.33
2023-11-23T05:16:10.460Z,78.92
2023-11-23T05:18:41.992Z,79.84
2023-11-23T05:21:12.950Z,79.09
2023-11-23T05:23:41.688Z,79.52
2023-11-23T05:26:10.582Z,79.33
2023-11-23T05:28:41.151Z,79.38
2023-11-23T05:31:10.650Z,79.31
2023-11-23T05:33:39.871Z,79.32
2023-11-23T05:36:11.504Z,80.31
2023-11-23T05:38:40.477Z,79.77
2023-11-23T05:41:09.236Z,79.93
2023-11-23T05:43:42.938Z,80.04
2023-11-23T05:46:14.000Z,79.89
2023-11-23T05:48:43.861Z,80.52
2023-11-23T05:51:13.269Z,80.10
2023-11-23T05:53:43.472Z,79.61
2023-11-23T05:56:12.633Z,79.81
2023-11-23T05:58:42.755Z,80.30
2023-11-23T06:01:12.864Z,80.55
2023-11-23T06:03:43.512Z,79.85
2023-11-23T06:06:20.644Z,80.18
2023-11-23T06:13:08.685Z,80.81
2023-11-23T06:15:39.984Z,80.17
2023-11-23T06:18:13.856Z,79.71
2023-11-23T06:21:41.293Z,80.03
2023-11-23T06:27:20.100Z,79.94
2023-11-23T06:29:49.357Z,81.02
2023-11-23T06:32:20.751Z,80.89
2023-11-23T06:34:49.811Z,81.13
2023-11-23T06:37:19.086Z,81.12
2023-11-23T06:39:48.217Z,81.19
2023-11-23T06:42:17.041Z,81.09
2023-11-23T06:44:48.214Z,81.16
2023-11-23T06:47:18.457Z,81.78
2023-11-23T06:49:47.561Z,82.42
2023-11-23T06:52:16.671Z,82.52
2023-11-23T06:54:45.705Z,81.80
2023-11-23T06:57:14.735Z,81.99
2023-11-23T06:59:43.865Z,81.78
2023-11-23T07:02:13.536Z,82.03
2023-11-23T07:04:44.812Z,82.07
2023-11-23T07:07:13.800Z,82.31
2023-11-23T07:09:42.552Z,82.58
2023-11-23T07:12:12.479Z,82.27
2023-11-23T07:14:43.788Z,82.19
2023-11-23T07:17:12.775Z,82.56
2023-11-23T07:19:41.820Z,82.90
2023-11-23T07:22:12.446Z,83.06
2023-11-23T07:24:42.252Z,82.60
2023-11-23T07:27:11.283Z,82.78
2023-11-23T07:29:40.619Z,82.54
2023-11-23T07:32:09.915Z,83.31
2023-11-23T07:34:40.452Z,83.06
2023-11-23T07:37:11.863Z,82.77
2023-11-23T07:39:45.663Z,82.47
2023-11-23T07:42:17.325Z,83.26
2023-11-23T07:44:47.912Z,83.12
2023-11-23T07:47:17.747Z,83.56
2023-11-23T07:49:47.158Z,82.60
2023-11-23T07:52:16.296Z,83.41
2023-11-23T07:54:46.645Z,82.60
2023-11-23T07:57:16.247Z,82.60
2023-11-23T07:59:46.167Z,83.24
2023-11-23T08:02:15.310Z,82.90
2023-11-23T08:04:44.259Z,82.72
2023-11-23T08:07:13.220Z,82.03
2023-11-23T08:09:41.986Z,81.52
2023-11-23T08:12:13.207Z,82.24
2023-11-23T08:14:42.043Z,81.95
2023-11-23T08:17:13.126Z,81.75
2023-11-23T08:19:42.150Z,81.90
2023-11-23T08:22:14.563Z,81.50
2023-11-23T08:24:43.298Z,81.38
2023-11-23T08:27:13.686Z,82.15
2023-11-23T08:29:42.465Z,82.26
2023-11-23T08:32:14.275Z,82.26
2023-11-23T08:34:44.868Z,81.46
2023-11-23T08:37:14.193Z,81.93
2023-11-23T08:39:43.162Z,82.50
2023-11-23T08:42:13.751Z,82.11
2023-11-23T08:44:42.593Z,81.92
2023-11-23T08:47:11.418Z,82.45
2023-11-23T08:49:40.773Z,82.20
2023-11-23T08:52:09.769Z,82.79
2023-11-23T08:54:38.528Z,82.28
2023-11-23T08:57:08.115Z,82.42
2023-11-23T08:59:39.122Z,83.00
2023-11-23T09:02:17.257Z,82.68
2023-11-23T09:04:50.448Z,82.27
2023-11-23T09:07:21.752Z,81.56
2023-11-23T09:09:50.663Z,81.62
2023-11-23T09:12:19.488Z,81.70
2023-11-23T09:14:54.574Z,82.20
2023-11-23T09:17:23.372Z,82.57
2023-11-23T09:19:52.081Z,82.08
2023-11-23T09:22:20.851Z,82.00
2023-11-23T09:24:49.933Z,82.55
2023-11-23T09:27:19.868Z,81.61
2023-11-23T09:29:50.232Z,81.75
2023-11-23T09:32:20.351Z,81.71
2023-11-23T09:34:49.559Z,81.17
2023-11-23T09:37:18.687Z,80.02
2023-11-23T09:39:48.384Z,79.83
2023-11-23T09:42:17.881Z,80.08
2023-11-23T09:44:56.176Z,79.58
2023-11-23T09:47:33.186Z,79.07
2023-11-23T09:50:04.822Z,78.13
2023-11-23T09:52:34.583Z,77.60
2023-11-23T09:55:05.414Z,77.13
2023-11-23T09:57:34.187Z,76.50
2023-11-23T10:00:03.299Z,75.76
2023-11-23T10:02:38.412Z,75.91
2023-11-23T10:05:10.691Z,76.01
2023-11-23T10:07:39.562Z,76.68
2023-11-23T10:10:09.678Z,76.87
2023-11-23T10:12:39.047Z,77.27
2023-11-23T10:15:09.744Z,77.56
2023-11-23T10:17:41.447Z,77.23
2023-11-23T10:20:12.084Z,76.73
2023-11-23T10:22:46.458Z,76.42
2023-11-23T10:25:27.378Z,76.84
2023-11-23T10:27:59.873Z,76.95
2023-11-23T10:30:29.124Z,76.52
2023-11-23T10:33:00.026Z,75.69
2023-11-23T10:35:37.168Z,75.37
2023-11-23T10:38:06.417Z,74.97
2023-11-23T10:40:35.603Z,74.67
2023-11-23T10:43:05.115Z,74.18
2023-11-23T10:45:36.340Z,74.26
2023-11-23T10:48:08.108Z,74.36
2023-11-23T10:50:37.474Z,73.86
2023-11-23T10:53:06.263Z,74.08
2023-11-23T10:55:36.162Z,74.62
2023-11-23T10:58:09.592Z,74.55
2023-11-23T11:00:40.766Z,74.30
2023-11-23T11:03:14.202Z,73.99
2023-11-23T11:05:47.614Z,73.25
2023-11-23T11:08:21.603Z,73.15
2023-11-23T11:10:52.714Z,73.10
2023-11-23T11:13:23.976Z,72.35
2023-11-23T11:15:54.494Z,72.42
2023-11-23T11:18:26.053Z,71.96
2023-11-23T11:21:10.585Z,71.86
2023-11-23T11:23:45.667Z,71.01
2023-11-23T11:26:16.073Z,71.95
2023-11-23T11:28:45.553Z,72.07
2023-11-23T11:31:16.411Z,72.07
2023-11-23T11:33:53.269Z,72.38
2023-11-23T11:36:22.107Z,72.61
2023-11-23T11:38:57.032Z,72.82
2023-11-23T11:41:30.983Z,73.08
2023-11-23T11:44:00.968Z,73.51
2023-11-23T11:46:30.730Z,73.51
2023-11-23T11:49:01.150Z,74.00
2023-11-23T11:51:31.122Z,73.62
2023-11-23T11:54:00.837Z,74.27
2023-11-23T11:56:30.314Z,74.58
2023-11-23T11:59:00.643Z,75.37
2023-11-23T12:01:29.635Z,75.72
2023-11-23T12:03:58.472Z,75.93
2023-11-23T12:06:29.214Z,76.14
2023-11-23T12:08:59.951Z,76.16
2023-11-23T12:11:32.238Z,76.23
2023-11-23T12:14:03.001Z,76.84
2023-11-23T12:16:36.819Z,76.71
2023-11-23T12:19:20.875Z,76.81
2023-11-23T12:21:58.085Z,76.20
2023-11-23T12:24:27.642Z,75.27
2023-11-23T12:26:57.407Z,75.13
2023-11-23T12:29:26.271Z,74.76
2023-11-23T12:31:55.525Z,73.53
2023-11-23T12:34:24.891Z,72.79
2023-11-23T12:36:53.973Z,72.28
2023-11-23T12:39:24.634Z,71.18
2023-11-23T12:41:55.544Z,70.79
2023-11-23T12:44:24.879Z,71.46
2023-11-23T12:46:55.401Z,71.35
2023-11-23T12:49:24.698Z,72.54
2023-11-23T12:51:54.210Z,72.49
2023-11-23T12:54:24.394Z,73.32
2023-11-23T12:56:53.908Z,72.49
2023-11-23T12:59:22.699Z,73.05
2023-11-23T13:01:53.822Z,73.62
2023-11-23T13:04:26.165Z,74.18
2023-11-23T13:06:57.107Z,74.22
2023-11-23T13:09:29.354Z,73.85
2023-11-23T13:12:00.212Z,73.87
2023-11-23T13:14:29.203Z,73.84
2023-11-23T13:16:58.083Z,73.98
2023-11-23T13:19:34.022Z,74.30
2023-11-23T13:22:09.541Z,74.73
2023-11-23T13:24:41.106Z,74.89
2023-11-23T13:27:10.522Z,75.36
2023-11-23T13:29:39.450Z,75.72
2023-11-23T13:32:08.856Z,75.64
2023-11-23T13:34:38.673Z,75.86
2023-11-23T13:37:07.485Z,76.51
2023-11-23T13:39:38.126Z,77.33
2023-11-23T13:42:09.281Z,77.30
2023-11-23T13:44:38.407Z,77.92
2023-11-23T13:47:08.709Z,77.91
2023-11-23T13:49:39.535Z,78.55
2023-11-23T13:52:11.631Z,78.67
2023-11-23T13:54:40.555Z,78.98
2023-11-23T13:57:10.756Z,79.08
2023-11-23T13:59:39.660Z,79.43
2023-11-23T14:02:09.601Z,79.90
2023-11-23T14:04:38.530Z,79.35
2023-11-23T14:07:07.420Z,79.62
2023-11-23T14:09:36.429Z,80.08
2023-11-23T14:12:05.613Z,80.47
2023-11-23T14:14:35.878Z,80.60
2023-11-23T14:17:04.790Z,80.45
2023-11-23T14:19:33.574Z,80.63
2023-11-23T14:22:02.525Z,80.73
2023-11-23T14:24:31.566Z,80.62
2023-11-23T14:27:00.698Z,80.78
2023-11-23T14:29:29.870Z,80.55
2023-11-23T14:32:00.233Z,80.58
2023-11-23T14:34:30.001Z,80.83
2023-11-23T14:36:59.749Z,81.52
2023-11-23T14:39:29.740Z,81.16
2023-11-23T14:41:59.218Z,81.25
2023-11-23T14:44:28.388Z,81.72
2023-11-23T14:46:57.227Z,81.36
2023-11-23T14:49:31.769Z,81.47
2023-11-23T14:52:00.818Z,81.95
2023-11-23T14:54:37.048Z,82.48
2023-11-23T14:57:09.227Z,82.39
2023-11-23T14:59:38.442Z,82.43
2023-11-23T15:02:08.302Z,82.67
2023-11-23T15:04:38.758Z,82.79
2023-11-23T15:07:08.527Z,82.61
2023-11-23T15:09:37.950Z,82.59
2023-11-23T15:12:07.861Z,82.61
2023-11-23T15:14:37.438Z,82.77
2023-11-23T15:17:06.387Z,82.33
2023-11-23T15:19:36.040Z,82.74
2023-11-23T15:22:07.453Z,82.46
2023-11-23T15:24:37.328Z,82.50
2023-11-23T15:27:08.791Z,82.76
2023-11-23T15:29:38.116Z,82.25
2023-11-23T15:32:08.945Z,82.86
2023-11-23T15:34:37.854Z,83.01
2023-11-23T15:37:08.042Z,83.15
2023-11-23T15:39:37.225Z,83.19
2023-11-23T15:42:09.533Z,82.90
2023-11-23T15:44:38.931Z,83.53
2023-11-23T15:47:10.499Z,83.87
2023-11-23T15:49:40.302Z,83.88
2023-11-23T15:52:10.456Z,83.80
2023-11-23T15:54:39.954Z,84.10
2023-11-23T15:57:08.812Z,83.83
2023-11-23T15:59:39.287Z,84.43
2023-11-23T16:02:09.122Z,84.24
2023-11-23T16:04:37.994Z,84.14
2023-11-23T16:07:06.824Z,83.96
2023-11-23T16:09:38.669Z,84.52
2023-11-23T16:12:07.984Z,84.38
2023-11-23T16:14:38.105Z,84.82
2023-11-23T16:17:07.167Z,84.80
2023-11-23T16:19:36.366Z,84.96
2023-11-23T16:22:05.536Z,85.12
2023-11-23T16:24:34.532Z,85.02
2023-11-23T16:27:05.759Z,84.81
2023-11-23T16:29:34.704Z,84.91
2023-11-23T16:32:03.622Z,85.42
2023-11-23T16:34:32.477Z,85.10
2023-11-23T16:37:01.241Z,85.38
2023-11-23T16:39:30.293Z,85.25
2023-11-23T16:41:59.228Z,85.49
2023-11-23T16:44:31.442Z,85.29
2023-11-23T16:47:01.273Z,85.23
2023-11-23T16:49:30.315Z,85.70
2023-11-23T16:51:59.226Z,85.33
2023-11-23T16:54:28.114Z,85.64
2023-11-23T16:56:57.676Z,85.29
2023-11-23T16:59:29.081Z,85.37
2023-11-23T17:01:59.475Z,85.12
2023-11-23T17:04:28.572Z,85.17
2023-11-23T17:06:58.980Z,85.09
2023-11-23T17:09:28.504Z,84.98
2023-11-23T17:11:58.370Z,84.79
2023-11-23T17:14:27.939Z,84.68
2023-11-23T17:16:58.163Z,84.19
2023-11-23T17:19:27.781Z,84.08
2023-11-23T17:21:58.880Z,84.26
2023-11-23T17:24:30.600Z,83.67
2023-11-23T17:26:59.487Z,83.53
2023-11-23T17:29:28.230Z,83.70
2023-11-23T17:32:02.061Z,83.37
2023-11-23T17:34:30.912Z,83.04
2023-11-23T17:36:59.675Z,82.70
2023-11-23T17:39:30.643Z,82.88
2023-11-23T17:41:59.410Z,82.53
2023-11-23T17:44:28.460Z,82.22
2023-11-23T17:46:59.164Z,82.53
2023-11-23T17:49:28.156Z,81.89
2023-11-23T17:51:57.260Z,81.97
2023-11-23T17:54:29.911Z,81.69
2023-11-23T17:56:59.113Z,81.50
2023-11-23T17:59:43.401Z,80.94
2023-11-23T18:02:19.553Z,80.68
2023-11-23T18:04:53.471Z,80.15
2023-11-23T18:07:22.783Z,79.86
2023-11-23T18:09:51.647Z,79.95
2023-11-23T18:12:20.498Z,79.36
2023-11-23T18:14:49.236Z,79.23
2023-11-23T18:17:19.438Z,79.25
2023-11-23T18:19:48.283Z,78.80
2023-11-23T18:22:18.013Z,78.46
2023-11-23T18:24:46.872Z,78.69
2023-11-23T18:27:15.721Z,78.71
2023-11-23T18:29:44.550Z,78.71
2023-11-23T18:32:15.363Z,78.72
2023-11-23T18:34:46.494Z,78.92
2023-11-23T18:37:15.320Z,78.90
2023-11-23T18:39:44.034Z,78.63
2023-11-23T18:42:13.484Z,78.29
2023-11-23T18:44:42.587Z,77.87
2023-11-23T18:47:11.434Z,78.08
2023-11-23T18:49:40.180Z,77.95
2023-11-23T18:52:10.430Z,77.78
2023-11-23T18:54:39.246Z,77.96
2023-11-23T18:57:08.103Z,77.91
2023-11-23T18:59:36.920Z,77.57
2023-11-23T19:02:06.243Z,77.85
2023-11-23T19:04:35.796Z,77.39
2023-11-23T19:07:07.148Z,77.17
2023-11-23T19:09:39.153Z,77.27
2023-11-23T19:12:08.578Z,77.35
2023-11-23T19:14:38.179Z,77.14
2023-11-23T19:17:07.011Z,77.12
2023-11-23T19:19:38.576Z,77.33
2023-11-23T19:22:09.103Z,77.65
2023-11-23T19:24:40.089Z,77.44
2023-11-23T19:27:10.289Z,77.13
2023-11-23T19:29:46.032Z,77.50
2023-11-23T19:32:21.659Z,77.15
2023-11-23T19:34:51.067Z,76.81
2023-11-23T19:37:21.630Z,77.03
2023-11-23T19:39:52.827Z,76.95
2023-11-23T19:42:23.572Z,76.60
2023-11-23T19:44:53.945Z,76.95
2023-11-23T19:47:23.753Z,76.69
2023-11-23T19:49:53.328Z,77.02
2023-11-23T19:52:24.727Z,76.70
2023-11-23T19:54:56.026Z,76.71
2023-11-23T19:57:26.500Z,77.04
2023-11-23T19:59:55.885Z,76.98
2023-11-23T20:02:26.631Z,76.66
2023-11-23T20:04:55.461Z,76.75
2023-11-23T20:07:24.206Z,76.14
2023-11-23T20:09:54.478Z,76.40
2023-11-23T20:12:25.562Z,75.98
2023-11-23T20:14:55.089Z,75.92
2023-11-23T20:17:26.073Z,75.98
2023-11-23T20:19:55.414Z,76.23
2023-11-23T20:22:24.108Z,76.11
2023-11-23T20:24:54.577Z,76.45
2023-11-23T20:27:23.829Z,76.59
2023-11-23T20:29:52.554Z,76.28
2023-11-23T20:32:21.481Z,76.43
2023-11-23T20:34:50.231Z,76.39
2023-11-23T20:37:19.216Z,76.33
2023-11-23T20:39:49.100Z,76.38
2023-11-23T20:42:20.026Z,76.56
2023-11-23T20:44:49.051Z,76.80
2023-11-23T20:47:21.151Z,76.92
2023-11-23T20:49:53.105Z,77.17
2023-11-23T20:52:23.141Z,76.99
2023-11-23T20:54:54.512Z,77.25
2023-11-23T20:57:25.704Z,77.39
2023-11-23T20:59:55.415Z,77.08
2023-11-23T21:02:24.432Z,77.13
2023-11-23T21:04:54.126Z,77.13
2023-11-23T21:07:23.791Z,77.21
2023-11-23T21:09:53.002Z,77.61
2023-11-23T21:12:27.334Z,77.27
2023-11-23T21:14:57.330Z,77.58
2023-11-23T21:17:26.156Z,77.43
2023-11-23T21:19:55.398Z,77.53
2023-11-23T21:22:24.374Z,77.44
2023-11-23T21:24:53.430Z,77.93
2023-11-23T21:27:27.562Z,78.09
2023-11-23T21:29:58.104Z,77.88
2023-11-23T21:32:26.998Z,78.19
2023-11-23T21:34:55.704Z,77.86
2023-11-23T21:37:24.512Z,78.12
2023-11-23T21:39:53.904Z,77.97
2023-11-23T21:42:23.898Z,78.03
2023-11-23T21:44:53.892Z,78.10
2023-11-23T21:47:24.064Z,78.25
2023-11-23T21:49:53.345Z,77.95
2023-11-23T21:52:22.182Z,78.10
2023-11-23T21:55:00.887Z,78.76
2023-11-23T21:57:33.200Z,78.59
2023-11-23T22:00:02.538Z,78.40
2023-11-23T22:02:34.639Z,78.38
2023-11-23T22:05:03.728Z,79.08
2023-11-23T22:07:32.516Z,79.44
2023-11-23T22:10:01.940Z,79.17
2023-11-23T22:12:30.791Z,79.40
2023-11-23T22:14:59.605Z,79.49
2023-11-23T22:17:29.042Z,79.67
2023-11-23T22:19:59.880Z,79.28
2023-11-23T22:22:29.219Z,79.45
2023-11-23T22:24:58.312Z,79.44
2023-11-23T22:27:29.492Z,79.27
2023-11-23T22:29:58.891Z,79.20
2023-11-23T22:32:28.800Z,79.28
2023-11-23T22:34:59.838Z,79.51
2023-11-23T22:37:29.192Z,79.08
2023-11-23T22:39:58.487Z,78.96
2023-11-23T22:42:27.999Z,79.31
2023-11-23T22:44:57.267Z,79.38
2023-11-23T22:47:26.256Z,79.34
2023-11-23T22:49:55.675Z,79.57
2023-11-23T22:52:25.858Z,79.65
2023-11-23T22:54:54.882Z,79.84
2023-11-23T22:57:24.875Z,79.68
2023-11-23T22:59:53.706Z,80.04
2023-11-23T23:02:22.834Z,80.15
2023-11-23T23:04:52.657Z,80.13
2023-11-23T23:07:21.212Z,80.07
2023-11-23T23:09:51.627Z,80.32
2023-11-23T23:12:20.733Z,80.52
2023-11-23T23:14:49.543Z,80.68
2023-11-23T23:17:18.547Z,80.33
2023-11-23T23:19:47.422Z,80.80
2023-11-23T23:22:24.372Z,80.46
2023-11-23T23:25:00.412Z,80.78
2023-11-23T23:27:29.871Z,80.90
2023-11-23T23:29:58.684Z,80.81
2023-11-23T23:32:28.768Z,80.94
2023-11-23T23:34:57.868Z,81.11
2023-11-23T23:37:27.037Z,81.23
2023-11-23T23:39:56.075Z,81.36
2023-11-23T23:42:27.608Z,81.40
2023-11-23T23:44:57.388Z,81.69
2023-11-23T23:47:26.675Z,81.49
2023-11-23T23:49:56.277Z,81.67
2023-11-23T23:52:25.062Z,81.59
2023-11-23T23:54:53.938Z,81.99
2023-11-23T23:57:22.989Z,82.02
2023-11-23T23:59:53.177Z,82.36
